createdAt,value
2023-05-07T00:00:35.604Z,11.64
2023-05-07T00:03:39.489Z,11.63
2023-05-07T00:06:42.514Z,11.70
2023-05-07T00:09:45.524Z,11.79
2023-05-07T00:12:48.502Z,11.81
2023-05-07T00:15:51.332Z,11.75
2023-05-07T00:18:54.124Z,11.75
2023-05-07T00:21:57.396Z,11.76
2023-05-07T00:25:00.707Z,11.78
2023-05-07T00:28:05.102Z,11.71
2023-05-07T00:31:07.786Z,11.60
2023-05-07T00:34:10.735Z,11.60
2023-05-07T00:37:13.484Z,11.54
2023-05-07T00:40:16.144Z,11.46
2023-05-07T00:43:18.912Z,11.45
2023-05-07T00:46:22.722Z,11.40
2023-05-07T00:49:39.351Z,11.40
2023-05-07T00:52:43.337Z,11.44
2023-05-07T00:55:46.300Z,11.56
2023-05-07T00:58:49.811Z,11.58
2023-05-07T01:01:53.377Z,11.51
2023-05-07T01:04:57.010Z,11.49
2023-05-07T01:08:00.862Z,11.55
2023-05-07T01:11:03.833Z,11.63
2023-05-07T01:14:06.837Z,11.63
2023-05-07T01:17:09.791Z,11.65
2023-05-07T01:20:13.647Z,11.56
2023-05-07T01:23:18.907Z,11.63
2023-05-07T01:26:23.605Z,11.58
2023-05-07T01:29:26.803Z,11.63
2023-05-07T01:32:53.007Z,11.64
2023-05-07T01:35:56.112Z,11.62
2023-05-07T01:39:00.052Z,11.60
2023-05-07T01:42:03.010Z,11.60
2023-05-07T01:45:06.805Z,11.58
2023-05-07T01:48:11.535Z,11.55
2023-05-07T01:51:14.409Z,11.52
2023-05-07T01:54:17.973Z,11.51
2023-05-07T01:57:20.733Z,11.49
2023-05-07T02:00:23.763Z,11.44
2023-05-07T02:03:27.354Z,11.42
2023-05-07T02:06:39.134Z,11.39
2023-05-07T02:09:43.717Z,11.30
2023-05-07T02:12:48.308Z,11.24
2023-05-07T02:15:51.895Z,11.18
2023-05-07T02:18:55.150Z,11.20
2023-05-07T02:21:57.985Z,11.11
2023-05-07T02:25:06.216Z,11.04
2023-05-07T02:28:09.044Z,11.02
2023-05-07T02:31:19.701Z,10.87
2023-05-07T02:34:22.711Z,10.91
2023-05-07T02:37:25.550Z,10.99
2023-05-07T02:40:28.685Z,11.01
2023-05-07T02:43:31.464Z,11.02
2023-05-07T02:46:34.569Z,11.07
2023-05-07T02:49:42.125Z,11.13
2023-05-07T02:52:45.336Z,11.15
2023-05-07T02:55:48.065Z,11.00
2023-05-07T02:58:50.690Z,10.99
2023-05-07T03:01:55.197Z,10.80
2023-05-07T03:04:57.978Z,10.76
2023-05-07T03:08:00.868Z,10.68
2023-05-07T03:11:03.852Z,10.56
2023-05-07T03:14:06.650Z,10.48
2023-05-07T03:17:09.405Z,10.44
2023-05-07T03:20:13.101Z,10.50
2023-05-07T03:23:17.402Z,10.50
2023-05-07T03:26:20.082Z,10.48
2023-05-07T03:29:22.887Z,10.46
2023-05-07T03:32:26.289Z,10.45
2023-05-07T03:35:29.447Z,10.43
2023-05-07T03:38:32.552Z,10.54
2023-05-07T03:41:35.486Z,10.62
2023-05-07T03:44:38.440Z,10.68
2023-05-07T03:47:41.391Z,10.87
2023-05-07T03:50:45.956Z,10.89
2023-05-07T03:53:49.254Z,11.07
2023-05-07T03:56:52.308Z,11.11
2023-05-07T03:59:55.256Z,11.18
2023-05-07T04:02:58.093Z,11.28
2023-05-07T04:06:03.592Z,11.40
2023-05-07T04:09:09.348Z,11.63
2023-05-07T04:12:14.670Z,12.02
2023-05-07T04:15:17.632Z,12.98
2023-05-07T04:18:21.300Z,13.81
2023-05-07T04:21:25.569Z,14.55
2023-05-07T04:24:28.390Z,14.36
2023-05-07T04:27:31.291Z,14.13
2023-05-07T04:30:33.979Z,13.86
2023-05-07T04:33:39.369Z,14.37
2023-05-07T04:36:44.737Z,14.22
2023-05-07T04:39:50.228Z,14.06
2023-05-07T04:42:54.578Z,13.84
2023-05-07T04:45:58.138Z,13.54
2023-05-07T04:49:03.354Z,13.51
2023-05-07T04:52:06.353Z,13.36
2023-05-07T04:55:10.133Z,13.69
2023-05-07T04:58:15.540Z,13.51
2023-05-07T05:01:19.934Z,13.58
2023-05-07T05:04:25.660Z,13.27
2023-05-07T05:07:28.860Z,13.43
2023-05-07T05:10:31.931Z,13.26
2023-05-07T05:13:34.716Z,13.13
2023-05-07T05:16:43.537Z,13.80
2023-05-07T05:19:47.004Z,13.46
2023-05-07T05:22:50.168Z,13.64
2023-05-07T05:26:00.134Z,13.36
2023-05-07T05:29:06.361Z,13.86
2023-05-07T05:32:09.208Z,13.67
2023-05-07T05:35:12.776Z,13.93
2023-05-07T05:38:17.010Z,14.11
2023-05-07T05:41:19.824Z,14.18
2023-05-07T05:44:22.886Z,14.27
2023-05-07T05:47:25.904Z,14.40
2023-05-07T05:50:31.717Z,14.33
2023-05-07T05:53:35.741Z,14.31
2023-05-07T05:56:39.335Z,14.71
2023-05-07T05:59:42.426Z,14.65
2023-05-07T06:02:45.408Z,14.77
2023-05-07T06:05:51.658Z,14.67
2023-05-07T06:08:59.580Z,14.79
2023-05-07T06:12:10.038Z,14.97
2023-05-07T06:15:13.402Z,14.73
2023-05-07T06:18:17.555Z,15.06
2023-05-07T06:21:20.959Z,15.21
2023-05-07T06:24:25.287Z,15.40
2023-05-07T06:27:29.407Z,15.74
2023-05-07T06:30:33.074Z,15.65
2023-05-07T06:33:36.411Z,15.77
2023-05-07T06:36:39.647Z,15.80
2023-05-07T06:39:51.330Z,15.77
2023-05-07T06:42:54.510Z,16.40
2023-05-07T06:46:20.130Z,16.27
2023-05-07T06:49:23.597Z,15.76
2023-05-07T06:52:28.342Z,16.24
2023-05-07T06:55:32.316Z,15.84
2023-05-07T06:58:35.837Z,15.51
2023-05-07T07:01:39.190Z,15.54
2023-05-07T07:04:43.962Z,15.89
2023-05-07T07:07:54.031Z,16.20
2023-05-07T07:10:59.242Z,16.32
2023-05-07T07:14:02.607Z,16.58
2023-05-07T07:17:08.400Z,16.41
2023-05-07T07:20:12.445Z,16.43
2023-05-07T07:23:17.051Z,16.90
2023-05-07T07:26:19.892Z,16.77
2023-05-07T07:29:22.887Z,17.11
2023-05-07T07:32:26.058Z,17.18
2023-05-07T07:35:31.598Z,17.37
2023-05-07T07:38:35.482Z,17.14
2023-05-07T07:41:39.138Z,16.83
2023-05-07T07:44:43.051Z,16.92
2023-05-07T07:47:48.786Z,16.03
2023-05-07T07:50:55.322Z,16.19
2023-05-07T07:53:59.398Z,16.07
2023-05-07T07:57:03.283Z,15.85
2023-05-07T08:00:10.223Z,16.49
2023-05-07T08:03:21.207Z,16.50
2023-05-07T08:06:28.657Z,16.08
2023-05-07T08:09:32.142Z,15.72
2023-05-07T08:12:36.969Z,16.05
2023-05-07T08:15:40.100Z,16.93
2023-05-07T08:18:43.628Z,16.87
2023-05-07T08:21:49.034Z,16.51
2023-05-07T08:24:54.957Z,16.10
2023-05-07T08:27:58.526Z,15.69
2023-05-07T08:31:02.422Z,16.53
2023-05-07T08:34:10.412Z,16.47
2023-05-07T08:37:17.045Z,17.07
2023-05-07T08:40:23.565Z,16.58
2023-05-07T08:43:29.119Z,17.22
2023-05-07T08:46:33.698Z,16.92
2023-05-07T08:49:36.978Z,16.42
2023-05-07T08:52:42.162Z,16.61
2023-05-07T08:55:45.370Z,17.06
2023-05-07T08:58:49.465Z,17.10
2023-05-07T09:01:52.908Z,16.96
2023-05-07T09:04:56.798Z,17.27
2023-05-07T09:08:04.724Z,17.29
2023-05-07T09:11:07.721Z,18.01
2023-05-07T09:14:10.779Z,17.11
2023-05-07T09:17:18.462Z,17.31
2023-05-07T09:20:21.890Z,17.64
2023-05-07T09:23:25.308Z,17.71
2023-05-07T09:26:29.507Z,17.57
2023-05-07T09:29:36.818Z,17.49
2023-05-07T09:32:41.690Z,17.61
2023-05-07T09:35:53.224Z,17.93
2023-05-07T09:38:58.163Z,17.80
2023-05-07T09:42:02.768Z,18.06
2023-05-07T09:45:10.500Z,18.35
2023-05-07T09:48:18.743Z,17.41
2023-05-07T09:51:51.727Z,18.33
2023-05-07T09:55:00.581Z,18.58
2023-05-07T09:58:06.986Z,18.11
2023-05-07T10:01:12.177Z,17.78
2023-05-07T10:04:16.824Z,18.05
2023-05-07T10:07:22.326Z,18.52
2023-05-07T10:10:29.479Z,17.58
2023-05-07T10:13:34.350Z,17.67
2023-05-07T10:16:38.132Z,18.06
2023-05-07T10:19:46.512Z,18.49
2023-05-07T10:22:50.833Z,18.38
2023-05-07T10:26:01.367Z,18.47
2023-05-07T10:29:26.841Z,18.20
2023-05-07T10:32:47.472Z,18.21
2023-05-07T10:36:00.662Z,18.08
2023-05-07T10:39:04.351Z,18.34
2023-05-07T10:42:14.598Z,18.33
2023-05-07T10:45:24.046Z,18.33
2023-05-07T10:48:30.728Z,18.01
2023-05-07T10:51:40.253Z,18.44
2023-05-07T10:55:21.208Z,17.92
2023-05-07T10:58:36.228Z,18.26
2023-05-07T11:02:00.271Z,18.39
2023-05-07T11:05:24.077Z,17.99
2023-05-07T11:09:00.858Z,18.28
2023-05-07T11:12:18.331Z,18.38
2023-05-07T11:15:40.027Z,18.42
2023-05-07T11:18:56.948Z,18.29
2023-05-07T11:22:09.805Z,18.17
2023-05-07T11:25:21.623Z,18.44
2023-05-07T11:28:32.412Z,17.86
2023-05-07T11:31:39.927Z,18.18
2023-05-07T11:34:43.616Z,18.12
2023-05-07T11:37:47.167Z,18.16
2023-05-07T11:40:55.826Z,17.86
2023-05-07T11:44:00.005Z,17.77
2023-05-07T11:47:03.534Z,17.93
2023-05-07T11:50:09.128Z,17.85
2023-05-07T11:53:14.267Z,17.93
2023-05-07T11:56:18.559Z,17.77
2023-05-07T11:59:21.484Z,17.91
2023-05-07T12:02:26.449Z,17.65
2023-05-07T12:05:30.640Z,18.48
2023-05-07T12:08:34.269Z,18.94
2023-05-07T12:11:41.276Z,18.67
2023-05-07T12:14:45.659Z,18.47
2023-05-07T12:17:48.662Z,18.28
2023-05-07T12:20:52.239Z,18.30
2023-05-07T12:23:55.365Z,17.99
2023-05-07T12:26:58.388Z,18.00
2023-05-07T12:30:03.527Z,18.04
2023-05-07T12:33:06.482Z,18.25
2023-05-07T12:36:09.724Z,18.05
2023-05-07T12:39:12.616Z,17.92
2023-05-07T12:42:21.239Z,17.88
2023-05-07T12:45:24.309Z,17.13
2023-05-07T12:48:29.819Z,17.64
2023-05-07T12:51:32.687Z,17.36
2023-05-07T12:54:39.282Z,17.12
2023-05-07T12:57:43.787Z,17.39
2023-05-07T13:00:49.659Z,17.31
2023-05-07T13:03:52.897Z,17.25
2023-05-07T13:06:56.012Z,16.70
2023-05-07T13:09:59.090Z,17.43
2023-05-07T13:13:02.030Z,17.27
2023-05-07T13:16:06.581Z,17.67
2023-05-07T13:19:09.381Z,17.27
2023-05-07T13:22:12.393Z,17.01
2023-05-07T13:25:15.546Z,16.14
2023-05-07T13:28:19.085Z,15.95
2023-05-07T13:31:22.505Z,15.97
2023-05-07T13:34:25.245Z,15.90
2023-05-07T13:37:28.456Z,15.71
2023-05-07T13:40:31.760Z,15.83
2023-05-07T13:43:34.984Z,15.95
2023-05-07T13:46:37.849Z,15.87
2023-05-07T13:49:40.542Z,15.77
2023-05-07T13:52:46.945Z,15.60
2023-05-07T13:55:50.125Z,14.92
2023-05-07T13:59:00.071Z,15.20
2023-05-07T14:02:03.892Z,15.61
2023-05-07T14:05:06.872Z,15.09
2023-05-07T14:08:09.773Z,14.90
2023-05-07T14:11:12.841Z,14.94
2023-05-07T14:14:18.079Z,15.17
2023-05-07T14:17:21.547Z,15.32
2023-05-07T14:20:24.385Z,15.20
2023-05-07T14:23:27.978Z,15.27
2023-05-07T14:26:31.049Z,15.46
2023-05-07T14:29:34.357Z,15.91
2023-05-07T14:32:37.482Z,16.05
2023-05-07T14:35:40.714Z,16.09
2023-05-07T14:38:43.594Z,16.38
2023-05-07T14:41:46.395Z,16.09
2023-05-07T14:44:50.229Z,16.22
2023-05-07T14:47:53.362Z,15.71
2023-05-07T14:50:57.418Z,15.54
2023-05-07T14:54:00.565Z,15.11
2023-05-07T14:57:03.840Z,15.15
2023-05-07T15:00:08.353Z,14.59
2023-05-07T15:03:11.918Z,15.27
2023-05-07T15:06:17.931Z,15.01
2023-05-07T15:09:21.266Z,15.34
2023-05-07T15:12:24.312Z,14.88
2023-05-07T15:15:27.462Z,14.31
2023-05-07T15:18:33.932Z,14.23
2023-05-07T15:21:37.887Z,14.95
2023-05-07T15:24:42.404Z,14.35
2023-05-07T15:27:45.378Z,13.93
2023-05-07T15:30:48.361Z,13.60
2023-05-07T15:33:53.335Z,13.79
2023-05-07T15:36:58.124Z,14.66
2023-05-07T15:40:03.502Z,14.72
2023-05-07T15:43:06.265Z,15.17
2023-05-07T15:46:09.065Z,15.13
2023-05-07T15:49:12.042Z,13.87
2023-05-07T15:52:16.316Z,13.73
2023-05-07T15:55:19.765Z,13.09
2023-05-07T15:58:22.933Z,13.23
2023-05-07T16:01:26.260Z,13.22
2023-05-07T16:04:29.120Z,12.97
2023-05-07T16:07:32.250Z,13.13
2023-05-07T16:10:35.116Z,13.04
2023-05-07T16:13:38.436Z,12.81
2023-05-07T16:16:41.443Z,12.69
2023-05-07T16:19:44.656Z,12.38
2023-05-07T16:22:47.439Z,12.25
2023-05-07T16:25:50.444Z,12.24
2023-05-07T16:28:53.475Z,12.53
2023-05-07T16:31:58.480Z,12.59
2023-05-07T16:35:01.503Z,12.23
2023-05-07T16:38:10.388Z,12.06
2023-05-07T16:41:13.991Z,12.03
2023-05-07T16:44:17.962Z,12.10
2023-05-07T16:47:21.714Z,12.14
2023-05-07T16:50:24.998Z,12.03
2023-05-07T16:53:28.090Z,12.00
2023-05-07T16:56:31.094Z,11.89
2023-05-07T16:59:34.100Z,11.81
2023-05-07T17:02:37.071Z,11.64
2023-05-07T17:05:40.396Z,11.44
2023-05-07T17:08:43.396Z,11.43
2023-05-07T17:11:46.445Z,11.42
2023-05-07T17:14:49.564Z,11.46
2023-05-07T17:17:52.722Z,11.38
2023-05-07T17:20:55.737Z,11.55
2023-05-07T17:23:58.460Z,11.27
2023-05-07T17:27:01.372Z,10.91
2023-05-07T17:30:04.564Z,10.85
2023-05-07T17:33:19.989Z,10.83
2023-05-07T17:36:23.982Z,10.69
2023-05-07T17:39:26.868Z,10.96
2023-05-07T17:42:30.222Z,10.83
2023-05-07T17:45:33.457Z,10.59
2023-05-07T17:48:36.203Z,10.61
2023-05-07T17:51:52.501Z,10.48
2023-05-07T17:54:56.302Z,10.21
2023-05-07T17:57:59.229Z,10.31
2023-05-07T18:01:02.166Z,10.18
2023-05-07T18:04:05.274Z,9.92
2023-05-07T18:07:08.260Z,9.73
2023-05-07T18:10:11.910Z,9.64
2023-05-07T18:13:15.115Z,9.47
2023-05-07T18:16:19.576Z,9.28
2023-05-07T18:19:22.661Z,9.27
2023-05-07T18:22:25.421Z,9.03
2023-05-07T18:25:28.480Z,8.92
2023-05-07T18:28:31.394Z,8.88
2023-05-07T18:31:36.764Z,8.76
2023-05-07T18:34:40.782Z,8.73
2023-05-07T18:37:43.569Z,8.52
2023-05-07T18:40:47.840Z,8.46
2023-05-07T18:43:51.122Z,8.35
2023-05-07T18:46:53.894Z,8.27
2023-05-07T18:49:56.940Z,8.16
2023-05-07T18:53:00.131Z,8.16
2023-05-07T18:56:03.527Z,8.06
2023-05-07T18:59:06.486Z,8.10
2023-05-07T19:02:09.343Z,7.94
2023-05-07T19:05:12.413Z,7.93
2023-05-07T19:08:18.385Z,7.88
2023-05-07T19:11:22.171Z,7.78
2023-05-07T19:14:25.382Z,7.74
2023-05-07T19:17:28.407Z,7.65
2023-05-07T19:20:31.401Z,7.64
2023-05-07T19:23:34.835Z,7.59
2023-05-07T19:26:37.706Z,7.61
2023-05-07T19:29:41.130Z,7.64
2023-05-07T19:32:44.010Z,7.52
2023-05-07T19:35:46.963Z,7.43
2023-05-07T19:38:53.371Z,7.40
2023-05-07T19:41:56.688Z,7.35
2023-05-07T19:44:59.497Z,7.26
2023-05-07T19:48:04.855Z,7.22
2023-05-07T19:51:07.852Z,7.25
2023-05-07T19:54:11.091Z,7.22
2023-05-07T19:57:14.768Z,7.20
2023-05-07T20:00:23.714Z,7.21
2023-05-07T20:03:26.805Z,7.06
2023-05-07T20:06:29.830Z,7.13
2023-05-07T20:09:33.030Z,7.07
2023-05-07T20:12:36.057Z,7.01
2023-05-07T20:15:39.316Z,7.00
2023-05-07T20:18:42.237Z,7.01
2023-05-07T20:21:45.055Z,6.99
2023-05-07T20:24:48.043Z,6.92
2023-05-07T20:27:51.134Z,7.12
2023-05-07T20:30:54.303Z,7.17
2023-05-07T20:33:57.648Z,7.10
2023-05-07T20:37:00.671Z,7.12
2023-05-07T20:40:05.047Z,7.14
2023-05-07T20:43:08.419Z,7.08
2023-05-07T20:46:11.375Z,6.93
2023-05-07T20:49:14.274Z,6.91
2023-05-07T20:52:17.577Z,6.86
2023-05-07T20:55:20.514Z,6.85
2023-05-07T20:58:27.151Z,6.81
2023-05-07T21:01:30.049Z,6.79
2023-05-07T21:04:33.299Z,6.85
2023-05-07T21:07:36.325Z,6.75
2023-05-07T21:10:39.482Z,6.78
2023-05-07T21:13:42.448Z,6.71
2023-05-07T21:16:45.548Z,6.85
2023-05-07T21:19:50.138Z,6.75
2023-05-07T21:22:52.876Z,6.73
2023-05-07T21:25:55.632Z,6.75
2023-05-07T21:28:58.397Z,6.77
2023-05-07T21:32:01.196Z,6.81
2023-05-07T21:35:04.348Z,6.83
2023-05-07T21:38:07.270Z,6.80
2023-05-07T21:41:10.457Z,6.72
2023-05-07T21:44:13.402Z,6.75
2023-05-07T21:47:16.116Z,6.64
2023-05-07T21:50:19.577Z,6.61
2023-05-07T21:53:22.371Z,6.58
2023-05-07T21:56:25.439Z,6.63
2023-05-07T21:59:28.190Z,6.63
2023-05-07T22:02:31.045Z,6.59
2023-05-07T22:05:33.977Z,6.47
2023-05-07T22:08:36.752Z,6.45
2023-05-07T22:11:39.605Z,6.40
2023-05-07T22:14:42.455Z,6.35
2023-05-07T22:17:45.369Z,6.31
2023-05-07T22:20:51.659Z,6.36
2023-05-07T22:23:54.408Z,6.35
2023-05-07T22:26:57.157Z,6.35
2023-05-07T22:29:59.886Z,6.39
2023-05-07T22:33:02.658Z,6.31
2023-05-07T22:36:05.953Z,6.32
2023-05-07T22:39:10.305Z,6.35
2023-05-07T22:42:13.043Z,6.22
2023-05-07T22:45:16.094Z,6.25
2023-05-07T22:48:18.903Z,6.25
2023-05-07T22:51:21.923Z,6.19
2023-05-07T22:54:25.691Z,6.22
2023-05-07T22:57:28.472Z,6.20
2023-05-07T23:00:31.302Z,6.19
2023-05-07T23:03:34.233Z,6.16
2023-05-07T23:06:37.024Z,6.10
2023-05-07T23:09:40.092Z,6.11
2023-05-07T23:12:43.346Z,6.02
2023-05-07T23:15:46.607Z,6.05
2023-05-07T23:18:49.882Z,6.06
2023-05-07T23:21:53.669Z,6.03
2023-05-07T23:24:56.845Z,6.03
2023-05-07T23:27:59.496Z,6.10
2023-05-07T23:31:02.452Z,6.14
2023-05-07T23:34:05.303Z,6.13
2023-05-07T23:37:10.399Z,6.16
2023-05-07T23:40:13.467Z,6.08
2023-05-07T23:43:16.459Z,6.14
2023-05-07T23:46:20.099Z,6.13
2023-05-07T23:49:22.745Z,6.17
2023-05-07T23:52:25.514Z,6.07
2023-05-07T23:55:28.264Z,6.08
2023-05-07T23:58:31.210Z,6.01
